createdAt,value
2018-08-13T00:00:15.081Z,4.00
2018-08-13T00:02:42.719Z,4.40
2018-08-13T00:05:10.387Z,6.00
2018-08-13T00:07:38.381Z,4.00
2018-08-13T00:10:05.999Z,4.00
2018-08-13T00:12:33.615Z,3.00
2018-08-13T00:15:01.786Z,4.40
2018-08-13T00:17:29.688Z,4.00
2018-08-13T00:19:57.274Z,3.80
2018-08-13T00:22:24.875Z,4.40
2018-08-13T00:24:52.478Z,3.20
2018-08-13T00:27:20.328Z,5.60
2018-08-13T00:29:49.075Z,6.00
2018-08-13T00:32:16.707Z,3.00
2018-08-13T00:34:44.625Z,3.00
2018-08-13T00:37:12.890Z,3.00
2018-08-13T00:39:40.531Z,4.80
2018-08-13T00:42:08.126Z,4.80
2018-08-13T00:44:36.197Z,4.20
2018-08-13T00:47:05.419Z,4.60
2018-08-13T00:49:34.361Z,3.40
2018-08-13T00:52:02.273Z,3.40
2018-08-13T00:54:29.906Z,4.40
2018-08-13T00:56:57.544Z,4.00
2018-08-13T00:59:26.302Z,3.80
2018-08-13T01:01:54.229Z,4.00
2018-08-13T01:04:21.874Z,4.40
2018-08-13T01:06:49.514Z,4.00
2018-08-13T01:09:17.141Z,3.20
2018-08-13T01:11:44.800Z,3.80
2018-08-13T01:14:12.378Z,3.60
2018-08-13T01:16:40.006Z,3.40
2018-08-13T01:19:07.986Z,4.40
2018-08-13T01:24:14.492Z,2.20
2018-08-13T01:26:42.126Z,6.00
2018-08-13T01:29:10.627Z,4.00
2018-08-13T01:31:38.576Z,8.20
2018-08-13T01:34:06.201Z,8.60
2018-08-13T01:36:34.835Z,4.80
2018-08-13T01:39:02.490Z,4.00
2018-08-13T01:41:30.129Z,6.00
2018-08-13T01:43:57.754Z,4.00
2018-08-13T01:46:25.375Z,4.00
2018-08-13T01:48:53.309Z,4.00
2018-08-13T01:51:20.961Z,4.00
2018-08-13T01:53:49.166Z,4.00
2018-08-13T01:56:17.745Z,4.40
2018-08-13T01:58:45.357Z,6.00
2018-08-13T02:01:13.532Z,6.00
2018-08-13T02:03:41.146Z,4.00
2018-08-13T02:06:09.108Z,4.00
2018-08-13T02:08:36.762Z,4.40
2018-08-13T02:11:05.847Z,5.20
2018-08-13T02:13:34.406Z,4.00
2018-08-13T02:16:02.516Z,4.00
2018-08-13T02:18:30.750Z,3.60
2018-08-13T02:20:58.373Z,4.00
2018-08-13T02:23:25.979Z,4.00
2018-08-13T02:25:54.047Z,4.00
2018-08-13T02:28:21.659Z,4.00
2018-08-13T02:30:49.263Z,5.80
2018-08-13T02:33:16.941Z,5.60
2018-08-13T02:38:27.027Z,5.60
2018-08-13T02:40:54.658Z,6.60
2018-08-13T02:43:22.556Z,6.00
2018-08-13T02:45:50.180Z,6.00
2018-08-13T02:48:17.803Z,7.40
2018-08-13T02:50:45.729Z,9.00
2018-08-13T02:53:13.959Z,6.60
2018-08-13T02:55:41.597Z,6.00
2018-08-13T02:58:10.214Z,6.00
2018-08-13T03:00:38.141Z,7.00
2018-08-13T03:03:05.808Z,6.40
2018-08-13T03:05:33.456Z,7.00
2018-08-13T03:08:01.426Z,6.00
2018-08-13T03:10:29.459Z,8.40
2018-08-13T03:12:57.095Z,6.20
2018-08-13T03:15:24.744Z,6.40
2018-08-13T03:17:52.371Z,5.60
2018-08-13T03:20:20.314Z,9.00
2018-08-13T03:22:47.955Z,8.20
2018-08-13T03:25:15.537Z,9.00
2018-08-13T03:27:43.142Z,7.00
2018-08-13T03:30:11.035Z,7.40
2018-08-13T03:32:38.732Z,6.60
2018-08-13T03:35:06.374Z,6.20
2018-08-13T03:37:34.015Z,6.00
2018-08-13T03:40:01.921Z,6.00
2018-08-13T03:42:29.538Z,6.00
2018-08-13T03:44:57.166Z,6.20
2018-08-13T03:47:24.766Z,6.00
2018-08-13T03:49:52.687Z,5.20
2018-08-13T03:52:20.274Z,6.40
2018-08-13T03:54:47.888Z,6.00
2018-08-13T03:57:15.503Z,6.00
2018-08-13T03:59:43.496Z,6.00
2018-08-13T04:02:11.115Z,6.00
2018-08-13T04:04:38.700Z,7.00
2018-08-13T04:07:06.346Z,6.20
2018-08-13T04:09:35.302Z,3.00
2018-08-13T04:12:03.635Z,6.80
2018-08-13T04:14:32.446Z,5.60
2018-08-13T04:17:04.186Z,6.80
2018-08-13T04:19:33.756Z,7.00
2018-08-13T04:22:02.570Z,7.00
2018-08-13T04:24:30.266Z,5.60
2018-08-13T04:26:58.298Z,6.40
2018-08-13T04:29:26.343Z,6.00
2018-08-13T04:31:53.982Z,6.00
2018-08-13T04:34:21.664Z,5.60
2018-08-13T04:36:49.614Z,6.40
2018-08-13T04:39:17.199Z,3.40
2018-08-13T04:41:44.919Z,5.20
2018-08-13T04:44:14.438Z,6.00
2018-08-13T04:46:42.051Z,6.20
2018-08-13T04:49:09.640Z,6.00
2018-08-13T04:51:38.547Z,6.00
2018-08-13T04:54:06.344Z,3.40
2018-08-13T04:56:34.744Z,3.00
2018-08-13T04:59:03.035Z,3.00
2018-08-13T05:01:30.648Z,4.80
2018-08-13T05:03:58.338Z,6.00
2018-08-13T05:06:27.083Z,4.80
2018-08-13T05:08:55.526Z,5.60
2018-08-13T05:11:23.158Z,4.00
2018-08-13T05:13:51.037Z,4.00
2018-08-13T05:16:18.640Z,4.00
2018-08-13T05:18:46.234Z,4.00
2018-08-13T05:21:14.145Z,4.00
2018-08-13T05:23:42.606Z,4.00
2018-08-13T05:26:10.232Z,3.20
2018-08-13T05:28:38.320Z,4.00
2018-08-13T05:31:05.910Z,4.80
2018-08-13T05:33:33.488Z,4.00
2018-08-13T05:36:01.360Z,4.00
2018-08-13T05:38:28.976Z,3.20
2018-08-13T05:40:56.595Z,4.00
2018-08-13T05:43:24.494Z,4.00
2018-08-13T05:45:52.334Z,4.80
2018-08-13T05:48:19.930Z,4.60
2018-08-13T05:50:49.438Z,4.80
2018-08-13T05:53:17.877Z,3.20
2018-08-13T05:55:45.543Z,4.20
2018-08-13T05:58:13.725Z,3.20
2018-08-13T06:00:43.234Z,4.00
2018-08-13T06:03:10.936Z,4.00
2018-08-13T06:05:39.848Z,4.00
2018-08-13T06:08:07.434Z,4.00
2018-08-13T06:10:35.018Z,4.00
2018-08-13T06:13:02.652Z,4.60
2018-08-13T06:15:30.222Z,4.00
2018-08-13T06:17:58.912Z,4.40
2018-08-13T06:20:27.050Z,2.00
2018-08-13T06:22:54.700Z,4.00
2018-08-13T06:25:23.310Z,4.80
2018-08-13T06:27:54.470Z,4.00
2018-08-13T06:30:22.054Z,6.00
2018-08-13T06:32:50.875Z,5.00
2018-08-13T06:35:18.515Z,4.80
2018-08-13T06:37:46.159Z,5.00
2018-08-13T06:40:14.296Z,2.80
2018-08-13T06:42:42.709Z,5.00
2018-08-13T06:45:10.654Z,2.00
2018-08-13T06:47:39.624Z,6.20
2018-08-13T06:50:10.904Z,4.80
2018-08-13T06:52:38.486Z,5.20
2018-08-13T06:55:07.761Z,4.00
2018-08-13T06:57:35.719Z,4.00
2018-08-13T07:00:03.361Z,2.20
2018-08-13T07:02:31.353Z,4.40
2018-08-13T07:05:00.329Z,4.00
2018-08-13T07:07:27.979Z,4.00
2018-08-13T07:09:55.969Z,5.00
2018-08-13T07:12:23.585Z,4.00
2018-08-13T07:14:52.065Z,6.00
2018-08-13T07:17:21.900Z,6.00
2018-08-13T07:19:49.632Z,6.60
2018-08-13T07:22:17.922Z,5.60
2018-08-13T07:24:46.427Z,4.20
2018-08-13T07:27:14.070Z,6.00
2018-08-13T07:29:42.707Z,6.00
2018-08-13T07:32:10.658Z,5.20
2018-08-13T07:34:40.211Z,6.60
2018-08-13T07:37:07.867Z,7.20
2018-08-13T07:39:36.836Z,6.80
2018-08-13T07:42:04.459Z,8.00
2018-08-13T07:44:34.088Z,3.00
2018-08-13T07:47:02.303Z,5.40
2018-08-13T07:49:31.237Z,4.00
2018-08-13T07:51:58.821Z,5.00
2018-08-13T07:54:26.714Z,5.60
2018-08-13T07:56:58.502Z,4.00
2018-08-13T07:59:26.170Z,4.00
2018-08-13T08:01:56.517Z,4.40
2018-08-13T08:04:25.283Z,5.20
2018-08-13T08:06:54.631Z,4.60
2018-08-13T08:09:22.494Z,5.40
2018-08-13T08:11:51.484Z,4.00
2018-08-13T08:14:19.091Z,3.20
2018-08-13T08:16:51.433Z,4.40
2018-08-13T08:19:19.025Z,6.20
2018-08-13T08:21:46.752Z,4.00
2018-08-13T08:24:15.327Z,4.00
2018-08-13T08:26:43.973Z,1.60
2018-08-13T08:29:12.565Z,4.20
2018-08-13T08:31:41.346Z,5.60
2018-08-13T08:34:09.567Z,4.40
2018-08-13T08:36:37.135Z,4.00
2018-08-13T08:39:06.295Z,4.60
2018-08-13T08:41:34.797Z,4.00
2018-08-13T08:44:02.434Z,4.00
2018-08-13T08:46:30.338Z,5.00
2018-08-13T08:48:58.154Z,5.00
2018-08-13T08:51:25.762Z,3.40
2018-08-13T08:54:00.052Z,4.00
2018-08-13T08:56:27.698Z,5.80
2018-08-13T08:58:55.301Z,5.00
2018-08-13T09:01:24.036Z,4.00
2018-08-13T09:03:52.496Z,5.00
2018-08-13T09:06:20.127Z,1.20
2018-08-13T09:08:49.017Z,5.00
2018-08-13T09:11:16.635Z,4.80
2018-08-13T09:13:44.226Z,4.00
2018-08-13T09:16:12.139Z,5.00
2018-08-13T09:18:40.536Z,4.00
2018-08-13T09:21:08.163Z,4.00
2018-08-13T09:23:36.297Z,5.00
2018-08-13T09:26:03.964Z,4.00
2018-08-13T09:28:32.199Z,3.60
2018-08-13T09:31:00.137Z,3.60
2018-08-13T09:33:29.344Z,2.00
2018-08-13T09:35:57.821Z,2.40
2018-08-13T09:38:25.798Z,2.00
2018-08-13T09:40:55.022Z,4.20
2018-08-13T09:43:22.674Z,2.00
2018-08-13T09:45:51.326Z,2.00
2018-08-13T09:48:19.713Z,3.20
2018-08-13T09:50:47.335Z,2.00
2018-08-13T09:53:17.310Z,4.00
2018-08-13T09:55:46.469Z,2.40
2018-08-13T09:58:14.639Z,2.00
2018-08-13T10:00:48.429Z,4.80
2018-08-13T10:03:16.852Z,4.00
2018-08-13T10:05:45.605Z,4.20
2018-08-13T10:08:14.342Z,5.00
2018-08-13T10:10:41.945Z,4.00
2018-08-13T10:13:09.583Z,2.40
2018-08-13T10:15:37.544Z,5.00
2018-08-13T10:18:06.161Z,4.80
2018-08-13T10:20:33.772Z,1.20
2018-08-13T10:23:01.667Z,4.40
2018-08-13T10:25:29.299Z,4.00
2018-08-13T10:27:58.834Z,3.20
2018-08-13T10:30:26.741Z,3.20
2018-08-13T10:32:54.388Z,3.60
2018-08-13T10:35:22.662Z,2.00
2018-08-13T10:37:50.648Z,3.20
2018-08-13T10:40:19.646Z,0.80
2018-08-13T10:42:47.645Z,1.20
2018-08-13T10:45:17.770Z,3.80
2018-08-13T10:47:46.207Z,2.80
2018-08-13T10:50:14.180Z,3.60
2018-08-13T10:52:42.424Z,2.00
2018-08-13T10:55:10.136Z,2.00
2018-08-13T10:57:37.831Z,4.00
2018-08-13T11:00:05.871Z,1.40
2018-08-13T11:02:38.956Z,2.00
2018-08-13T11:05:08.067Z,1.00
2018-08-13T11:07:36.015Z,1.80
2018-08-13T11:10:06.747Z,1.00
2018-08-13T11:12:35.585Z,3.20
2018-08-13T11:15:03.621Z,0.00
2018-08-13T11:17:34.440Z,3.60
2018-08-13T11:20:03.347Z,1.00
2018-08-13T11:22:34.929Z,1.00
2018-08-13T11:25:02.732Z,1.00
2018-08-13T11:27:30.314Z,2.00
2018-08-13T11:29:58.411Z,2.00
2018-08-13T11:32:26.560Z,2.00
2018-08-13T11:34:55.172Z,4.00
2018-08-13T11:37:23.221Z,2.00
2018-08-13T11:39:52.742Z,4.00
2018-08-13T11:42:20.702Z,1.80
2018-08-13T11:44:50.361Z,2.40
2018-08-13T11:47:18.033Z,2.40
2018-08-13T11:49:48.687Z,3.20
2018-08-13T11:52:16.945Z,4.80
2018-08-13T11:54:45.196Z,4.00
2018-08-13T11:57:13.741Z,3.20
2018-08-13T11:59:41.647Z,1.00
2018-08-13T12:02:09.306Z,2.80
2018-08-13T12:04:37.334Z,1.00
2018-08-13T12:07:06.330Z,5.00
2018-08-13T12:09:33.966Z,3.60
2018-08-13T12:12:03.218Z,5.00
2018-08-13T12:14:30.838Z,2.80
2018-08-13T12:16:58.541Z,4.00
2018-08-13T12:19:26.449Z,2.00
2018-08-13T12:21:54.107Z,3.60
2018-08-13T12:24:22.497Z,1.00
2018-08-13T12:26:50.462Z,3.60
2018-08-13T12:29:18.504Z,4.60
2018-08-13T12:31:47.476Z,3.20
2018-08-13T12:34:16.610Z,4.00
2018-08-13T12:36:44.317Z,0.00
2018-08-13T12:39:13.144Z,4.80
2018-08-13T12:44:14.346Z,4.00
2018-08-13T12:46:43.545Z,4.00
2018-08-13T12:49:12.622Z,3.20
2018-08-13T12:51:40.297Z,4.00
2018-08-13T12:54:10.209Z,4.40
2018-08-13T12:56:39.440Z,4.00
2018-08-13T12:59:08.207Z,4.00
2018-08-13T13:01:36.391Z,4.00
2018-08-13T13:04:06.138Z,5.40
2018-08-13T13:06:34.631Z,4.40
2018-08-13T13:09:02.824Z,4.20
2018-08-13T13:11:31.468Z,4.60
2018-08-13T13:13:59.115Z,7.00
2018-08-13T13:16:27.355Z,6.80
2018-08-13T13:19:01.214Z,4.00
2018-08-13T13:21:28.868Z,7.20
2018-08-13T13:23:58.986Z,6.60
2018-08-13T13:26:26.927Z,7.40
2018-08-13T13:28:55.206Z,9.20
2018-08-13T13:31:23.447Z,5.00
2018-08-13T13:33:52.170Z,7.80
2018-08-13T13:36:20.415Z,8.60
2018-08-13T13:38:49.469Z,7.80
2018-08-13T13:41:18.991Z,8.00
2018-08-13T13:43:47.266Z,10.20
2018-08-13T13:46:18.581Z,12.00
2018-08-13T13:48:46.490Z,13.80
2018-08-13T13:51:14.755Z,12.20
2018-08-13T13:53:42.393Z,11.20
2018-08-13T13:56:10.637Z,14.80
2018-08-13T13:58:39.791Z,16.60
2018-08-13T14:01:07.637Z,14.00
2018-08-13T14:03:36.399Z,17.60
2018-08-13T14:06:05.692Z,15.60
2018-08-13T14:08:33.356Z,16.60
2018-08-13T14:11:01.459Z,16.20
2018-08-13T14:13:29.137Z,15.20
2018-08-13T14:15:57.343Z,17.00
2018-08-13T14:18:25.431Z,19.60
2018-08-13T14:20:53.031Z,17.00
2018-08-13T14:23:24.504Z,17.20
2018-08-13T14:25:53.405Z,11.00
2018-08-13T14:28:21.727Z,14.80
2018-08-13T14:30:49.926Z,10.60
2018-08-13T14:33:21.501Z,16.20
2018-08-13T14:35:49.935Z,16.00
2018-08-13T14:38:17.564Z,15.00
2018-08-13T14:40:45.487Z,14.20
2018-08-13T14:43:14.231Z,12.00
2018-08-13T14:45:41.899Z,14.60
2018-08-13T14:48:09.826Z,16.40
2018-08-13T14:50:37.557Z,15.00
2018-08-13T14:53:06.461Z,11.20
2018-08-13T14:55:34.402Z,13.20
2018-08-13T14:58:03.690Z,11.80
2018-08-13T15:00:35.388Z,15.60
2018-08-13T15:03:03.387Z,13.20
2018-08-13T15:05:31.101Z,15.00
2018-08-13T15:08:00.452Z,15.20
2018-08-13T15:10:28.646Z,13.40
2018-08-13T15:12:58.371Z,14.40
2018-08-13T15:15:26.118Z,16.20
2018-08-13T15:17:54.837Z,7.00
2018-08-13T15:20:24.995Z,1.40
2018-08-13T15:22:53.375Z,1.60
2018-08-13T15:25:22.398Z,1.60
2018-08-13T15:27:51.666Z,3.60
2018-08-13T15:30:19.357Z,1.00
2018-08-13T15:32:49.516Z,2.20
2018-08-13T15:35:17.395Z,1.00
2018-08-13T15:37:46.425Z,3.00
2018-08-13T15:40:14.600Z,3.00
2018-08-13T15:42:43.240Z,1.00
2018-08-13T15:45:10.848Z,1.00
2018-08-13T15:47:39.045Z,3.00
2018-08-13T15:50:06.793Z,3.00
2018-08-13T15:52:34.478Z,5.20
2018-08-13T15:55:02.480Z,6.40
2018-08-13T15:57:30.724Z,4.00
2018-08-13T15:59:59.399Z,6.80
2018-08-13T16:02:28.389Z,6.80
2018-08-13T16:04:57.686Z,6.60
2018-08-13T16:07:25.327Z,5.60
2018-08-13T16:09:53.264Z,4.80
2018-08-13T16:12:23.083Z,7.60
2018-08-13T16:14:51.337Z,5.00
2018-08-13T16:17:20.224Z,5.80
2018-08-13T16:19:48.791Z,5.00
2018-08-13T16:22:18.041Z,7.00
2018-08-13T16:24:47.045Z,5.20
2018-08-13T16:27:14.684Z,5.80
2018-08-13T16:29:42.315Z,7.20
2018-08-13T16:32:10.236Z,7.80
2018-08-13T16:34:38.031Z,8.60
2018-08-13T16:37:05.623Z,8.60
2018-08-13T16:39:33.546Z,7.80
2018-08-13T16:42:01.192Z,7.00
2018-08-13T16:44:28.833Z,7.20
2018-08-13T16:46:56.447Z,6.20
2018-08-13T16:49:24.099Z,5.40
2018-08-13T16:51:51.958Z,5.80
2018-08-13T16:54:19.566Z,9.00
2018-08-13T16:56:47.986Z,7.40
2018-08-13T16:59:15.866Z,6.60
2018-08-13T17:01:43.462Z,8.00
2018-08-13T17:04:11.135Z,10.60
2018-08-13T17:06:39.936Z,6.20
2018-08-13T17:09:07.573Z,7.00
2018-08-13T17:11:35.226Z,6.80
2018-08-13T17:14:04.545Z,8.00
2018-08-13T17:16:32.311Z,10.00
2018-08-13T17:19:02.388Z,8.60
2018-08-13T17:21:31.622Z,7.80
2018-08-13T17:23:59.299Z,8.80
2018-08-13T17:26:29.277Z,8.40
2018-08-13T17:28:57.187Z,6.60
2018-08-13T17:31:25.803Z,8.80
2018-08-13T17:33:53.415Z,5.40
2018-08-13T17:36:21.317Z,5.60
2018-08-13T17:38:49.706Z,9.40
2018-08-13T17:41:17.910Z,5.40
2018-08-13T17:43:46.657Z,9.00
2018-08-13T17:46:14.286Z,7.20
2018-08-13T17:48:41.911Z,9.40
2018-08-13T17:51:09.803Z,8.20
2018-08-13T17:53:38.335Z,5.20
2018-08-13T17:56:06.704Z,4.60
2018-08-13T17:58:35.181Z,7.40
2018-08-13T18:01:02.802Z,7.00
2018-08-13T18:03:30.438Z,6.80
2018-08-13T18:05:59.137Z,3.80
2018-08-13T18:08:26.756Z,10.00
2018-08-13T18:10:54.356Z,9.00
2018-08-13T18:13:22.296Z,7.60
2018-08-13T18:15:49.995Z,7.00
2018-08-13T18:18:17.585Z,8.40
2018-08-13T18:20:48.630Z,6.40
2018-08-13T18:23:16.278Z,8.40
2018-08-13T18:25:43.975Z,7.00
2018-08-13T18:28:12.009Z,6.00
2018-08-13T18:30:39.792Z,6.80
2018-08-13T18:33:07.440Z,5.40
2018-08-13T18:35:35.363Z,6.00
2018-08-13T18:38:04.631Z,4.00
2018-08-13T18:40:36.159Z,6.00
2018-08-13T18:43:10.988Z,4.40
2018-08-13T18:45:38.899Z,6.20
2018-08-13T18:48:07.077Z,7.00
2018-08-13T18:50:36.645Z,7.00
2018-08-13T18:53:07.237Z,6.40
2018-08-13T18:55:35.628Z,4.80
2018-08-13T18:58:08.889Z,8.20
2018-08-13T19:00:37.465Z,9.20
2018-08-13T19:03:05.749Z,7.40
2018-08-13T19:05:33.695Z,7.00
2018-08-13T19:08:02.497Z,7.00
2018-08-13T19:10:32.020Z,8.60
2018-08-13T19:13:00.796Z,7.00
2018-08-13T19:15:29.767Z,4.40
2018-08-13T19:17:57.539Z,3.20
2018-08-13T19:20:29.627Z,8.40
2018-08-13T19:22:59.045Z,3.00
2018-08-13T19:25:27.767Z,7.40
2018-08-13T19:28:01.643Z,4.00
2018-08-13T19:30:30.217Z,4.00
2018-08-13T19:32:59.302Z,4.00
2018-08-13T19:35:40.654Z,6.00
2018-08-13T19:38:09.198Z,8.60
2018-08-13T19:40:39.699Z,4.00
2018-08-13T19:43:08.614Z,4.80
2018-08-13T19:45:43.447Z,3.00
2018-08-13T19:48:12.428Z,3.80
2018-08-13T19:50:41.863Z,4.40
2018-08-13T19:56:06.549Z,7.40
2018-08-13T19:58:37.548Z,6.40
2018-08-13T20:01:05.866Z,4.00
2018-08-13T20:03:34.977Z,6.00
2018-08-13T20:06:02.643Z,3.60
2018-08-13T20:08:30.316Z,6.00
2018-08-13T20:11:00.199Z,4.00
2018-08-13T20:13:29.524Z,3.00
2018-08-13T20:16:01.900Z,6.60
2018-08-13T20:18:29.791Z,4.80
2018-08-13T20:20:57.414Z,3.80
2018-08-13T20:23:25.970Z,5.20
2018-08-13T20:25:54.869Z,4.00
2018-08-13T20:31:18.569Z,3.20
2018-08-13T20:33:47.968Z,5.20
2018-08-13T20:36:16.285Z,3.60
2018-08-13T20:38:46.542Z,3.40
2018-08-13T20:41:18.315Z,4.80
2018-08-13T20:43:47.492Z,5.20
2018-08-13T20:46:15.569Z,4.00
2018-08-13T20:48:44.271Z,5.60
2018-08-13T20:51:13.841Z,5.20
2018-08-13T20:53:42.043Z,4.00
2018-08-13T20:56:10.451Z,3.00
2018-08-13T20:58:39.489Z,5.20
2018-08-13T21:01:07.671Z,4.00
2018-08-13T21:03:42.571Z,6.00
2018-08-13T21:06:12.015Z,2.60
2018-08-13T21:08:40.231Z,4.40
2018-08-13T21:11:08.222Z,3.80
2018-08-13T21:13:36.555Z,6.00
2018-08-13T21:16:07.917Z,6.00
2018-08-13T21:18:36.662Z,3.20
2018-08-13T21:21:06.507Z,4.80
2018-08-13T21:23:35.825Z,3.40
2018-08-13T21:26:03.767Z,4.40
2018-08-13T21:28:31.738Z,3.00
2018-08-13T21:31:00.272Z,6.40
2018-08-13T21:33:31.838Z,5.20
2018-08-13T21:35:59.430Z,5.60
2018-08-13T21:38:27.085Z,4.00
2018-08-13T21:40:58.583Z,3.80
2018-08-13T21:43:29.952Z,3.00
2018-08-13T21:45:57.827Z,5.20
2018-08-13T21:48:27.450Z,2.80
2018-08-13T21:50:56.396Z,4.00
2018-08-13T21:53:30.583Z,4.00
2018-08-13T21:56:01.972Z,3.00
2018-08-13T21:58:30.607Z,5.20
2018-08-13T22:01:03.409Z,4.00
2018-08-13T22:03:32.542Z,3.00
2018-08-13T22:06:01.791Z,3.00
2018-08-13T22:08:29.403Z,3.40
2018-08-13T22:10:59.053Z,6.00
2018-08-13T22:13:30.527Z,4.80
2018-08-13T22:15:58.289Z,6.00
2018-08-13T22:18:25.923Z,4.80
2018-08-13T22:20:55.623Z,6.60
2018-08-13T22:23:23.212Z,7.40
2018-08-13T22:25:51.422Z,6.60
2018-08-13T22:28:20.253Z,6.00
2018-08-13T22:30:48.062Z,8.60
2018-08-13T22:33:16.825Z,7.60
2018-08-13T22:35:47.552Z,7.00
2018-08-13T22:38:15.438Z,6.00
2018-08-13T22:40:43.027Z,7.00
2018-08-13T22:43:10.652Z,3.00
2018-08-13T22:45:38.363Z,6.00
2018-08-13T22:48:06.002Z,4.00
2018-08-13T22:50:36.558Z,6.00
2018-08-13T22:53:04.152Z,6.40
2018-08-13T22:55:32.033Z,7.00
2018-08-13T22:58:00.801Z,8.40
2018-08-13T23:00:28.531Z,7.80
2018-08-13T23:02:56.456Z,4.80
2018-08-13T23:05:25.124Z,7.00
2018-08-13T23:07:53.776Z,6.00
2018-08-13T23:10:23.311Z,5.80
2018-08-13T23:12:51.276Z,6.20
2018-08-13T23:15:19.588Z,2.20
2018-08-13T23:17:47.361Z,7.00
2018-08-13T23:20:15.019Z,7.00
2018-08-13T23:22:42.903Z,8.20
2018-08-13T23:25:10.528Z,9.00
2018-08-13T23:27:40.127Z,6.80
2018-08-13T23:30:08.034Z,10.40
2018-08-13T23:32:36.240Z,5.20
2018-08-13T23:35:05.025Z,10.00
2018-08-13T23:37:33.625Z,9.00
2018-08-13T23:40:01.220Z,6.00
2018-08-13T23:42:29.426Z,9.00
2018-08-13T23:44:57.050Z,9.00
2018-08-13T23:47:24.699Z,10.00
2018-08-13T23:49:52.390Z,12.00
2018-08-13T23:52:20.415Z,7.00
2018-08-13T23:54:48.026Z,9.00
2018-08-13T23:57:15.616Z,7.00
2018-08-13T23:59:43.599Z,12.40
